AAL3097 KIND-KPHL
Flight info
| Callsign | AAL3097 |
|---|---|
| Flight time | 1h 15m |
| Altitude | 39000 |
| Route | MAREO5 BDOCK APE JST BOJID4 |
| Aircraft | A319/M-SDE3FGHIRWY/LB1 |
Departure
| Time | 2026-05-07 23:17 |
|---|---|
| Airport | Indianapolis International Airport (KIND) |
Arrival
| Time | 2026-05-08 00:32 |
|---|---|
| Airport | Philadelphia International Airport (KPHL) |
| Time | Latitude | Longitude | Altitude | Speed | Heading |
|---|---|---|---|---|---|
| 2026-05-07 22:30 | 39.71664 | -86.29741 | 781 ft | 0 kts | 312° |
| 2026-05-07 23:10 | 39.71662 | -86.29738 | 772 ft | 2 kts | 312° |
| 2026-05-07 23:10 | 39.71645 | -86.29713 | 781 ft | 4 kts | 308° |
| 2026-05-07 23:10 | 39.71629 | -86.29687 | 781 ft | 1 kts | 310° |
| 2026-05-07 23:11 | 39.71628 | -86.29686 | 781 ft | 0 kts | 310° |
| 2026-05-07 23:13 | 39.71633 | -86.29685 | 781 ft | 4 kts | 352° |
| 2026-05-07 23:13 | 39.71717 | -86.29565 | 781 ft | 17 kts | 45° |
| 2026-05-07 23:14 | 39.71834 | -86.29453 | 781 ft | 21 kts | 19° |
| 2026-05-07 23:14 | 39.71945 | -86.29560 | 781 ft | 21 kts | 308° |
| 2026-05-07 23:14 | 39.72050 | -86.29683 | 781 ft | 19 kts | 357° |
| 2026-05-07 23:14 | 39.72161 | -86.29607 | 781 ft | 16 kts | 1° |
| 2026-05-07 23:15 | 39.72251 | -86.29684 | 781 ft | 13 kts | 338° |
| 2026-05-07 23:15 | 39.72327 | -86.29633 | 781 ft | 23 kts | 43° |
| 2026-05-07 23:15 | 39.72472 | -86.29448 | 781 ft | 31 kts | 45° |
| 2026-05-07 23:15 | 39.72623 | -86.29254 | 781 ft | 31 kts | 43° |
| 2026-05-07 23:16 | 39.72749 | -86.29208 | 781 ft | 19 kts | 320° |
| 2026-05-07 23:16 | 39.72791 | -86.29348 | 780 ft | 18 kts | 229° |
| 2026-05-07 23:16 | 39.72688 | -86.29471 | 779 ft | 33 kts | 224° |
| 2026-05-07 23:16 | 39.72327 | -86.29933 | 781 ft | 108 kts | 224° |
| 2026-05-07 23:17 | 39.71648 | -86.30802 | 811 ft | 161 kts | 226° |
| 2026-05-07 23:17 | 39.70838 | -86.31839 | 1431 ft | 165 kts | 227° |
| 2026-05-07 23:17 | 39.70036 | -86.32901 | 2212 ft | 165 kts | 228° |
| 2026-05-07 23:17 | 39.69118 | -86.33865 | 2797 ft | 183 kts | 207° |
| 2026-05-07 23:18 | 39.67760 | -86.33922 | 3191 ft | 217 kts | 161° |
| 2026-05-07 23:18 | 39.66553 | -86.32581 | 3695 ft | 249 kts | 120° |
| 2026-05-07 23:18 | 39.66177 | -86.30333 | 4289 ft | 272 kts | 85° |
| 2026-05-07 23:18 | 39.66409 | -86.28688 | 4908 ft | 277 kts | 74° |
| 2026-05-07 23:19 | 39.67091 | -86.25459 | 6224 ft | 284 kts | 72° |
| 2026-05-07 23:19 | 39.67631 | -86.22963 | 7138 ft | 291 kts | 72° |
| 2026-05-07 23:19 | 39.68187 | -86.20400 | 8006 ft | 298 kts | 72° |
| 2026-05-07 23:19 | 39.68754 | -86.17784 | 8920 ft | 305 kts | 72° |
| 2026-05-07 23:20 | 39.69333 | -86.15102 | 9817 ft | 312 kts | 72° |
| 2026-05-07 23:20 | 39.69732 | -86.13253 | 10290 ft | 321 kts | 72° |
| 2026-05-07 23:20 | 39.70358 | -86.10353 | 10653 ft | 345 kts | 72° |
| 2026-05-07 23:20 | 39.71004 | -86.07332 | 11246 ft | 358 kts | 72° |
| 2026-05-07 23:21 | 39.71676 | -86.04178 | 11956 ft | 367 kts | 72° |
| 2026-05-07 23:21 | 39.72366 | -86.00942 | 12680 ft | 376 kts | 72° |
| 2026-05-07 23:21 | 39.73080 | -85.97581 | 13405 ft | 385 kts | 72° |
| 2026-05-07 23:21 | 39.73797 | -85.94198 | 14098 ft | 393 kts | 72° |
| 2026-05-07 23:22 | 39.74527 | -85.90742 | 14755 ft | 400 kts | 72° |
| 2026-05-07 23:22 | 39.75259 | -85.87276 | 15419 ft | 406 kts | 72° |
| 2026-05-07 23:22 | 39.76013 | -85.83708 | 16090 ft | 412 kts | 72° |
| 2026-05-07 23:22 | 39.76778 | -85.80087 | 16760 ft | 418 kts | 72° |
| 2026-05-07 23:23 | 39.77554 | -85.76413 | 17423 ft | 425 kts | 71° |
| 2026-05-07 23:23 | 39.78340 | -85.72687 | 18087 ft | 431 kts | 71° |
| 2026-05-07 23:23 | 39.79137 | -85.68901 | 18692 ft | 437 kts | 72° |
| 2026-05-07 23:23 | 39.79940 | -85.65066 | 19250 ft | 443 kts | 72° |
| 2026-05-07 23:24 | 39.80752 | -85.61179 | 19804 ft | 449 kts | 72° |
| 2026-05-07 23:24 | 39.81575 | -85.57231 | 20358 ft | 455 kts | 72° |
| 2026-05-07 23:24 | 39.82408 | -85.53237 | 20913 ft | 461 kts | 72° |
| 2026-05-07 23:24 | 39.83252 | -85.49186 | 21462 ft | 467 kts | 73° |
| 2026-05-07 23:25 | 39.84102 | -85.45090 | 22000 ft | 473 kts | 73° |
| 2026-05-07 23:25 | 39.84964 | -85.40920 | 22545 ft | 479 kts | 73° |
| 2026-05-07 23:25 | 39.85833 | -85.36708 | 23092 ft | 485 kts | 73° |
| 2026-05-07 23:25 | 39.86711 | -85.32441 | 23621 ft | 491 kts | 73° |
| 2026-05-07 23:26 | 39.87600 | -85.28129 | 24071 ft | 496 kts | 73° |
| 2026-05-07 23:26 | 39.88305 | -85.23707 | 24524 ft | 502 kts | 83° |
| 2026-05-07 23:26 | 39.88611 | -85.19161 | 24988 ft | 506 kts | 87° |
| 2026-05-07 23:26 | 39.88858 | -85.14576 | 25446 ft | 510 kts | 87° |
| 2026-05-07 23:27 | 39.89355 | -85.05295 | 26333 ft | 518 kts | 87° |
| 2026-05-07 23:27 | 39.89610 | -85.00600 | 26789 ft | 522 kts | 87° |
| 2026-05-07 23:27 | 39.89870 | -84.95857 | 27224 ft | 526 kts | 87° |
| 2026-05-07 23:28 | 39.90127 | -84.91088 | 27648 ft | 530 kts | 87° |
| 2026-05-07 23:28 | 39.90381 | -84.86279 | 28063 ft | 534 kts | 87° |
| 2026-05-07 23:28 | 39.90632 | -84.81430 | 28494 ft | 538 kts | 87° |
| 2026-05-07 23:28 | 39.90880 | -84.76554 | 28915 ft | 542 kts | 87° |
| 2026-05-07 23:29 | 39.91129 | -84.71648 | 29328 ft | 545 kts | 87° |
| 2026-05-07 23:29 | 39.91380 | -84.66702 | 29734 ft | 549 kts | 87° |
| 2026-05-07 23:29 | 39.91633 | -84.61719 | 30135 ft | 553 kts | 87° |
| 2026-05-07 23:29 | 39.91887 | -84.56707 | 30475 ft | 556 kts | 87° |
| 2026-05-07 23:30 | 39.92139 | -84.51664 | 30800 ft | 560 kts | 87° |
| 2026-05-07 23:30 | 39.92391 | -84.46599 | 31129 ft | 563 kts | 87° |
| 2026-05-07 23:30 | 39.92643 | -84.41494 | 31461 ft | 566 kts | 87° |
| 2026-05-07 23:30 | 39.92893 | -84.36357 | 31785 ft | 569 kts | 87° |
| 2026-05-07 23:31 | 39.93138 | -84.31201 | 32092 ft | 572 kts | 87° |
| 2026-05-07 23:31 | 39.93382 | -84.26012 | 32397 ft | 576 kts | 87° |
| 2026-05-07 23:31 | 39.93854 | -84.20830 | 32791 ft | 576 kts | 79° |
| 2026-05-07 23:31 | 39.94569 | -84.15698 | 33234 ft | 576 kts | 78° |
| 2026-05-07 23:32 | 39.95282 | -84.10562 | 33666 ft | 576 kts | 78° |
| 2026-05-07 23:32 | 39.95992 | -84.05414 | 34070 ft | 577 kts | 78° |
| 2026-05-07 23:32 | 39.96696 | -84.00272 | 34465 ft | 577 kts | 78° |
| 2026-05-07 23:32 | 39.97396 | -83.95130 | 34863 ft | 576 kts | 78° |
| 2026-05-07 23:33 | 39.98094 | -83.89991 | 35250 ft | 576 kts | 78° |
| 2026-05-07 23:33 | 39.98791 | -83.84847 | 35625 ft | 575 kts | 78° |
| 2026-05-07 23:33 | 39.99483 | -83.79718 | 36007 ft | 575 kts | 78° |
| 2026-05-07 23:33 | 40.00171 | -83.74592 | 36394 ft | 574 kts | 78° |
| 2026-05-07 23:34 | 40.00858 | -83.69456 | 36754 ft | 574 kts | 78° |
| 2026-05-07 23:34 | 40.01542 | -83.64329 | 37104 ft | 573 kts | 78° |
| 2026-05-07 23:34 | 40.02222 | -83.59214 | 37471 ft | 573 kts | 78° |
| 2026-05-07 23:34 | 40.02899 | -83.54100 | 37833 ft | 572 kts | 78° |
| 2026-05-07 23:35 | 40.03572 | -83.49006 | 38170 ft | 572 kts | 78° |
| 2026-05-07 23:35 | 40.04249 | -83.43877 | 38508 ft | 571 kts | 78° |
| 2026-05-07 23:35 | 40.04924 | -83.38769 | 38816 ft | 571 kts | 78° |
| 2026-05-07 23:35 | 40.05594 | -83.33669 | 38968 ft | 570 kts | 78° |
| 2026-05-07 23:36 | 40.06915 | -83.23511 | 39021 ft | 566 kts | 78° |
| 2026-05-07 23:36 | 40.08211 | -83.13457 | 39018 ft | 564 kts | 78° |
| 2026-05-07 23:37 | 40.09516 | -83.03295 | 39019 ft | 564 kts | 78° |
| 2026-05-07 23:37 | 40.10788 | -82.93268 | 39014 ft | 562 kts | 78° |
| 2026-05-07 23:38 | 40.12070 | -82.83191 | 39014 ft | 562 kts | 78° |
| 2026-05-07 23:38 | 40.13344 | -82.73112 | 39022 ft | 562 kts | 79° |
| 2026-05-07 23:39 | 40.14603 | -82.63038 | 39029 ft | 562 kts | 79° |
| 2026-05-07 23:39 | 40.15670 | -82.52922 | 39033 ft | 562 kts | 83° |
| 2026-05-07 23:40 | 40.16254 | -82.42734 | 39026 ft | 562 kts | 86° |
| 2026-05-07 23:40 | 40.16461 | -82.37639 | 39136 ft | 560 kts | 86° |
| 2026-05-07 23:40 | 40.16671 | -82.32575 | 38982 ft | 553 kts | 86° |
| 2026-05-07 23:41 | 40.17181 | -82.22620 | 39007 ft | 557 kts | 85° |
| 2026-05-07 23:41 | 40.17802 | -82.12474 | 39007 ft | 561 kts | 84° |
| 2026-05-07 23:42 | 40.18409 | -82.02321 | 39006 ft | 561 kts | 85° |
| 2026-05-07 23:42 | 40.18969 | -81.92137 | 39005 ft | 562 kts | 85° |
| 2026-05-07 23:43 | 40.19503 | -81.81946 | 39004 ft | 562 kts | 85° |
| 2026-05-07 23:43 | 40.20039 | -81.71755 | 39008 ft | 562 kts | 85° |
| 2026-05-07 23:44 | 40.20575 | -81.61548 | 39010 ft | 562 kts | 85° |
| 2026-05-07 23:44 | 40.21104 | -81.51348 | 39011 ft | 562 kts | 85° |
| 2026-05-07 23:45 | 40.21625 | -81.41145 | 38996 ft | 562 kts | 86° |
| 2026-05-07 23:45 | 40.22138 | -81.30939 | 39005 ft | 562 kts | 86° |
| 2026-05-07 23:46 | 40.22629 | -81.20730 | 39001 ft | 562 kts | 86° |
| 2026-05-07 23:46 | 40.23113 | -81.10528 | 39002 ft | 562 kts | 86° |
| 2026-05-07 23:47 | 40.23597 | -81.00332 | 38992 ft | 562 kts | 86° |
| 2026-05-07 23:47 | 40.24072 | -80.90131 | 38982 ft | 561 kts | 86° |
| 2026-05-07 23:48 | 40.24534 | -80.79927 | 38978 ft | 561 kts | 86° |
| 2026-05-07 23:48 | 40.24984 | -80.69733 | 38978 ft | 561 kts | 86° |
| 2026-05-07 23:49 | 40.25425 | -80.59540 | 38975 ft | 561 kts | 87° |
| 2026-05-07 23:49 | 40.25860 | -80.49402 | 38982 ft | 561 kts | 87° |
| 2026-05-07 23:50 | 40.26285 | -80.39219 | 38995 ft | 560 kts | 87° |
| 2026-05-07 23:50 | 40.26705 | -80.29029 | 38992 ft | 560 kts | 87° |
| 2026-05-07 23:51 | 40.27114 | -80.18845 | 38988 ft | 560 kts | 87° |
| 2026-05-07 23:51 | 40.27513 | -80.08655 | 38948 ft | 560 kts | 88° |
| 2026-05-07 23:52 | 40.27898 | -79.98481 | 38942 ft | 559 kts | 88° |
| 2026-05-07 23:52 | 40.28284 | -79.88306 | 38947 ft | 559 kts | 88° |
| 2026-05-07 23:53 | 40.28662 | -79.78138 | 38952 ft | 559 kts | 88° |
| 2026-05-07 23:53 | 40.29023 | -79.67973 | 38956 ft | 558 kts | 88° |
| 2026-05-07 23:54 | 40.29363 | -79.57814 | 38952 ft | 558 kts | 88° |
| 2026-05-07 23:54 | 40.29700 | -79.47651 | 38949 ft | 558 kts | 88° |
| 2026-05-07 23:55 | 40.30036 | -79.37517 | 38944 ft | 558 kts | 88° |
| 2026-05-07 23:55 | 40.30367 | -79.27356 | 38984 ft | 558 kts | 88° |
| 2026-05-07 23:56 | 40.30671 | -79.17627 | 38976 ft | 557 kts | 89° |
| 2026-05-07 23:56 | 40.30972 | -79.07562 | 38931 ft | 557 kts | 89° |
| 2026-05-07 23:57 | 40.31272 | -78.97413 | 38919 ft | 557 kts | 89° |
| 2026-05-07 23:57 | 40.31567 | -78.87268 | 38885 ft | 558 kts | 89° |
| 2026-05-07 23:58 | 40.31704 | -78.82191 | 38659 ft | 558 kts | 90° |
| 2026-05-07 23:58 | 40.31782 | -78.77112 | 38204 ft | 558 kts | 91° |
| 2026-05-07 23:58 | 40.31791 | -78.72005 | 37459 ft | 561 kts | 92° |
| 2026-05-07 23:58 | 40.31748 | -78.66896 | 36785 ft | 562 kts | 92° |
| 2026-05-07 23:59 | 40.31684 | -78.61767 | 35939 ft | 566 kts | 93° |
| 2026-05-07 23:59 | 40.31626 | -78.56589 | 35059 ft | 572 kts | 92° |
| 2026-05-07 23:59 | 40.31585 | -78.51348 | 34293 ft | 575 kts | 92° |
| 2026-05-07 23:59 | 40.31563 | -78.46087 | 33412 ft | 578 kts | 91° |
| 2026-05-08 00:00 | 40.31553 | -78.40828 | 32600 ft | 577 kts | 91° |
| 2026-05-08 00:00 | 40.31546 | -78.35571 | 31755 ft | 577 kts | 92° |
| 2026-05-08 00:00 | 40.31534 | -78.30308 | 30894 ft | 577 kts | 92° |
| 2026-05-08 00:00 | 40.31510 | -78.25050 | 30060 ft | 577 kts | 93° |
| 2026-05-08 00:01 | 40.31478 | -78.19819 | 29070 ft | 571 kts | 93° |
| 2026-05-08 00:01 | 40.31445 | -78.14665 | 28211 ft | 562 kts | 93° |
| 2026-05-08 00:01 | 40.31409 | -78.09577 | 27363 ft | 554 kts | 93° |
| 2026-05-08 00:01 | 40.31369 | -78.04564 | 26533 ft | 546 kts | 93° |
| 2026-05-08 00:02 | 40.31326 | -77.99710 | 25755 ft | 538 kts | 93° |
| 2026-05-08 00:02 | 40.31283 | -77.94840 | 25167 ft | 529 kts | 93° |
| 2026-05-08 00:02 | 40.31241 | -77.90044 | 24927 ft | 525 kts | 93° |
| 2026-05-08 00:02 | 40.31200 | -77.85268 | 24871 ft | 523 kts | 93° |
| 2026-05-08 00:03 | 40.31158 | -77.80495 | 24885 ft | 524 kts | 93° |
| 2026-05-08 00:03 | 40.31114 | -77.75744 | 24885 ft | 521 kts | 93° |
| 2026-05-08 00:03 | 40.31067 | -77.70999 | 24846 ft | 521 kts | 93° |
| 2026-05-08 00:03 | 40.31020 | -77.66260 | 23850 ft | 523 kts | 93° |
| 2026-05-08 00:04 | 40.30968 | -77.61479 | 22652 ft | 525 kts | 93° |
| 2026-05-08 00:04 | 40.30915 | -77.56723 | 21751 ft | 517 kts | 93° |
| 2026-05-08 00:04 | 40.30860 | -77.52063 | 21014 ft | 507 kts | 93° |
| 2026-05-08 00:04 | 40.30803 | -77.47515 | 20620 ft | 490 kts | 94° |
| 2026-05-08 00:05 | 40.30749 | -77.43110 | 20367 ft | 479 kts | 94° |
| 2026-05-08 00:05 | 40.30694 | -77.38775 | 20116 ft | 474 kts | 94° |
| 2026-05-08 00:05 | 40.30634 | -77.34473 | 19865 ft | 471 kts | 94° |
| 2026-05-08 00:05 | 40.30573 | -77.30200 | 19687 ft | 468 kts | 94° |
| 2026-05-08 00:06 | 40.30513 | -77.25944 | 19361 ft | 465 kts | 93° |
| 2026-05-08 00:06 | 40.30473 | -77.23149 | 19149 ft | 462 kts | 94° |
| 2026-05-08 00:06 | 40.30409 | -77.18956 | 18826 ft | 459 kts | 94° |
| 2026-05-08 00:06 | 40.30342 | -77.14800 | 18503 ft | 455 kts | 94° |
| 2026-05-08 00:07 | 40.30279 | -77.10671 | 18184 ft | 451 kts | 94° |
| 2026-05-08 00:07 | 40.29997 | -77.06616 | 17785 ft | 443 kts | 104° |
| 2026-05-08 00:07 | 40.29263 | -77.02740 | 17514 ft | 436 kts | 112° |
| 2026-05-08 00:07 | 40.28384 | -76.98949 | 17238 ft | 434 kts | 112° |
| 2026-05-08 00:08 | 40.27510 | -76.95174 | 17073 ft | 433 kts | 111° |
| 2026-05-08 00:08 | 40.26640 | -76.91417 | 16763 ft | 430 kts | 111° |
| 2026-05-08 00:08 | 40.25775 | -76.87679 | 16463 ft | 428 kts | 111° |
| 2026-05-08 00:08 | 40.24914 | -76.83971 | 16164 ft | 425 kts | 111° |
| 2026-05-08 00:09 | 40.24053 | -76.80273 | 15858 ft | 423 kts | 111° |
| 2026-05-08 00:09 | 40.23198 | -76.76604 | 15555 ft | 420 kts | 111° |
| 2026-05-08 00:09 | 40.22349 | -76.72956 | 15262 ft | 418 kts | 111° |
| 2026-05-08 00:09 | 40.21502 | -76.69336 | 14970 ft | 415 kts | 111° |
| 2026-05-08 00:10 | 40.20656 | -76.65731 | 14674 ft | 413 kts | 111° |
| 2026-05-08 00:10 | 40.19811 | -76.62145 | 14376 ft | 411 kts | 110° |
| 2026-05-08 00:10 | 40.18971 | -76.58585 | 14089 ft | 409 kts | 110° |
| 2026-05-08 00:10 | 40.18139 | -76.55041 | 13804 ft | 406 kts | 110° |
| 2026-05-08 00:11 | 40.17312 | -76.51520 | 13503 ft | 404 kts | 110° |
| 2026-05-08 00:11 | 40.16487 | -76.48015 | 13214 ft | 402 kts | 110° |
| 2026-05-08 00:11 | 40.15664 | -76.44540 | 12926 ft | 399 kts | 110° |
| 2026-05-08 00:11 | 40.14843 | -76.41090 | 12641 ft | 396 kts | 110° |
| 2026-05-08 00:12 | 40.14025 | -76.37661 | 12375 ft | 394 kts | 110° |
| 2026-05-08 00:12 | 40.13216 | -76.34256 | 12099 ft | 391 kts | 110° |
| 2026-05-08 00:12 | 40.12417 | -76.30872 | 11820 ft | 389 kts | 108° |
| 2026-05-08 00:12 | 40.11886 | -76.27416 | 11547 ft | 387 kts | 97° |
| 2026-05-08 00:13 | 40.11654 | -76.23924 | 11277 ft | 384 kts | 95° |
| 2026-05-08 00:13 | 40.11425 | -76.20455 | 11008 ft | 381 kts | 96° |
| 2026-05-08 00:13 | 40.11190 | -76.17023 | 10737 ft | 376 kts | 95° |
| 2026-05-08 00:13 | 40.10959 | -76.13696 | 10598 ft | 360 kts | 95° |
| 2026-05-08 00:14 | 40.10737 | -76.10542 | 10473 ft | 346 kts | 95° |
| 2026-05-08 00:14 | 40.10522 | -76.07470 | 10350 ft | 334 kts | 95° |
| 2026-05-08 00:14 | 40.10315 | -76.04502 | 10214 ft | 323 kts | 95° |
| 2026-05-08 00:14 | 40.10113 | -76.01606 | 9952 ft | 318 kts | 95° |
| 2026-05-08 00:15 | 40.09914 | -75.98760 | 9819 ft | 313 kts | 95° |
| 2026-05-08 00:15 | 40.09720 | -75.95936 | 9616 ft | 311 kts | 95° |
| 2026-05-08 00:15 | 40.09525 | -75.93131 | 9394 ft | 309 kts | 95° |
| 2026-05-08 00:15 | 40.09331 | -75.90342 | 9180 ft | 308 kts | 95° |
| 2026-05-08 00:16 | 40.09137 | -75.87567 | 8974 ft | 306 kts | 95° |
| 2026-05-08 00:16 | 40.08941 | -75.84808 | 8766 ft | 304 kts | 95° |
| 2026-05-08 00:16 | 40.08742 | -75.82062 | 8560 ft | 303 kts | 95° |
| 2026-05-08 00:16 | 40.08546 | -75.79335 | 8353 ft | 301 kts | 95° |
| 2026-05-08 00:17 | 40.08353 | -75.76628 | 8153 ft | 299 kts | 95° |
| 2026-05-08 00:17 | 40.08164 | -75.73927 | 8016 ft | 298 kts | 94° |
| 2026-05-08 00:17 | 40.08016 | -75.71240 | 7936 ft | 298 kts | 93° |
| 2026-05-08 00:17 | 40.07892 | -75.68543 | 7756 ft | 296 kts | 92° |
| 2026-05-08 00:18 | 40.07778 | -75.65869 | 7579 ft | 294 kts | 92° |
| 2026-05-08 00:18 | 40.07665 | -75.63203 | 7400 ft | 293 kts | 92° |
| 2026-05-08 00:18 | 40.07552 | -75.60557 | 7222 ft | 291 kts | 92° |
| 2026-05-08 00:18 | 40.07435 | -75.57925 | 7048 ft | 290 kts | 92° |
| 2026-05-08 00:19 | 40.07313 | -75.55303 | 6865 ft | 288 kts | 93° |
| 2026-05-08 00:19 | 40.07190 | -75.52699 | 6696 ft | 287 kts | 92° |
| 2026-05-08 00:19 | 40.07066 | -75.50111 | 6524 ft | 285 kts | 93° |
| 2026-05-08 00:19 | 40.06940 | -75.47527 | 6347 ft | 284 kts | 93° |
| 2026-05-08 00:20 | 40.06813 | -75.44954 | 6167 ft | 283 kts | 93° |
| 2026-05-08 00:20 | 40.06687 | -75.42396 | 5983 ft | 282 kts | 93° |
| 2026-05-08 00:20 | 40.06564 | -75.39856 | 5787 ft | 280 kts | 93° |
| 2026-05-08 00:20 | 40.06440 | -75.37320 | 5606 ft | 279 kts | 93° |
| 2026-05-08 00:21 | 40.06315 | -75.34797 | 5425 ft | 278 kts | 93° |
| 2026-05-08 00:21 | 40.06188 | -75.32275 | 5245 ft | 277 kts | 93° |
| 2026-05-08 00:21 | 40.06060 | -75.29774 | 5066 ft | 276 kts | 93° |
| 2026-05-08 00:21 | 40.05931 | -75.27274 | 4891 ft | 275 kts | 93° |
| 2026-05-08 00:22 | 40.05777 | -75.24792 | 4730 ft | 274 kts | 99° |
| 2026-05-08 00:22 | 40.05153 | -75.22459 | 4579 ft | 273 kts | 120° |
| 2026-05-08 00:22 | 40.03954 | -75.20559 | 4419 ft | 272 kts | 141° |
| 2026-05-08 00:22 | 40.02359 | -75.19327 | 4262 ft | 270 kts | 161° |
| 2026-05-08 00:23 | 40.00567 | -75.18619 | 4101 ft | 270 kts | 160° |
| 2026-05-08 00:23 | 39.99059 | -75.17201 | 3952 ft | 271 kts | 129° |
| 2026-05-08 00:23 | 39.98244 | -75.15017 | 3798 ft | 269 kts | 101° |
| 2026-05-08 00:23 | 39.98242 | -75.12600 | 3636 ft | 267 kts | 76° |
| 2026-05-08 00:24 | 39.98731 | -75.10267 | 3491 ft | 267 kts | 72° |
| 2026-05-08 00:24 | 39.99184 | -75.08162 | 3357 ft | 267 kts | 73° |
| 2026-05-08 00:24 | 39.99656 | -75.06293 | 3232 ft | 266 kts | 70° |
| 2026-05-08 00:24 | 40.00200 | -75.03990 | 3099 ft | 266 kts | 72° |
| 2026-05-08 00:25 | 40.00692 | -75.01709 | 3012 ft | 254 kts | 74° |
| 2026-05-08 00:25 | 40.00768 | -74.99511 | 3016 ft | 237 kts | 103° |
| 2026-05-08 00:25 | 39.99999 | -74.97725 | 3019 ft | 222 kts | 138° |
| 2026-05-08 00:25 | 39.98747 | -74.96625 | 3025 ft | 216 kts | 153° |
| 2026-05-08 00:26 | 39.97343 | -74.95965 | 3017 ft | 215 kts | 167° |
| 2026-05-08 00:26 | 39.95870 | -74.95766 | 3015 ft | 212 kts | 187° |
| 2026-05-08 00:26 | 39.94479 | -74.96194 | 3010 ft | 200 kts | 206° |
| 2026-05-08 00:26 | 39.93323 | -74.97121 | 3010 ft | 192 kts | 223° |
| 2026-05-08 00:27 | 39.92459 | -74.98420 | 3014 ft | 189 kts | 241° |
| 2026-05-08 00:27 | 39.91939 | -74.99971 | 3012 ft | 186 kts | 257° |
| 2026-05-08 00:27 | 39.91621 | -75.01588 | 3028 ft | 179 kts | 258° |
| 2026-05-08 00:27 | 39.91320 | -75.03111 | 2927 ft | 169 kts | 258° |
| 2026-05-08 00:28 | 39.91030 | -75.04577 | 2762 ft | 165 kts | 258° |
| 2026-05-08 00:28 | 39.90746 | -75.06017 | 2554 ft | 163 kts | 258° |
| 2026-05-08 00:28 | 39.90465 | -75.07442 | 2350 ft | 162 kts | 258° |
| 2026-05-08 00:28 | 39.90186 | -75.08856 | 2130 ft | 160 kts | 258° |
| 2026-05-08 00:29 | 39.89911 | -75.10240 | 1924 ft | 153 kts | 258° |
| 2026-05-08 00:29 | 39.89661 | -75.11488 | 1726 ft | 138 kts | 259° |
| 2026-05-08 00:29 | 39.89426 | -75.12660 | 1513 ft | 131 kts | 258° |
| 2026-05-08 00:29 | 39.89203 | -75.13801 | 1339 ft | 129 kts | 259° |
| 2026-05-08 00:30 | 39.88980 | -75.14928 | 1192 ft | 128 kts | 259° |
| 2026-05-08 00:30 | 39.88747 | -75.16054 | 1030 ft | 129 kts | 257° |
| 2026-05-08 00:30 | 39.88525 | -75.17176 | 861 ft | 128 kts | 260° |
| 2026-05-08 00:30 | 39.88304 | -75.18299 | 739 ft | 128 kts | 259° |
| 2026-05-08 00:31 | 39.88084 | -75.19416 | 581 ft | 127 kts | 259° |
| 2026-05-08 00:31 | 39.87878 | -75.20521 | 413 ft | 125 kts | 259° |
| 2026-05-08 00:31 | 39.87656 | -75.21616 | 215 ft | 124 kts | 257° |
| 2026-05-08 00:31 | 39.87439 | -75.22702 | 41 ft | 121 kts | 256° |
| 2026-05-08 00:32 | 39.87273 | -75.23550 | 28 ft | 70 kts | 254° |
| 2026-05-08 00:32 | 39.87175 | -75.24001 | 26 ft | 39 kts | 256° |
| 2026-05-08 00:32 | 39.87167 | -75.24270 | 26 ft | 20 kts | 292° |
| 2026-05-08 00:32 | 39.87238 | -75.24273 | 27 ft | 14 kts | 57° |
| 2026-05-08 00:33 | 39.87289 | -75.24180 | 28 ft | 14 kts | 6° |
| 2026-05-08 00:33 | 39.87346 | -75.24117 | 26 ft | 13 kts | 72° |
| 2026-05-08 00:33 | 39.87386 | -75.23923 | 26 ft | 23 kts | 57° |
| 2026-05-08 00:33 | 39.87516 | -75.23962 | 26 ft | 17 kts | 309° |
| 2026-05-08 00:34 | 39.87559 | -75.24047 | 27 ft | 7 kts | 283° |
| 2026-05-08 00:34 | 39.87541 | -75.24094 | 26 ft | 2 kts | 238° |
| 2026-05-08 00:34 | 39.87537 | -75.24103 | 26 ft | 0 kts | 239° |
| 2026-05-08 00:34 | 39.87536 | -75.24103 | 26 ft | 0 kts | 239° |